Terminal Aerodrome Forecast
Issued by NWS Sioux Falls, SD

Home | Current Version | Previous Version | Text Only | Print | Product List | Glossary On
Versions: 1 2 3 4 5 6 7 8 9 10 11 12 13 14 15 16 17 18 19 20 21 22
324
FTUS43 KFSD 241120
TAFFSD
TAF
KFSD 241120Z 2412/2512 02013KT P6SM OVC006
     FM241500 02017G23KT P6SM OVC008
     FM241800 02016G22KT P6SM OVC012
     FM242200 02017G25KT P6SM VCSH OVC020
     FM250200 03014KT P6SM OVC015
     FM250500 03011KT P6SM OVC008=

USA.gov is the U.S. government's official web portal to all federal, state and local government web resources and services.